createdAt,value
2018-05-03T00:00:21.421Z,980.04
2018-05-03T00:01:21.659Z,980.05
2018-05-03T00:02:21.851Z,980.05
2018-05-03T00:03:22.054Z,980.04
2018-05-03T00:04:22.240Z,980.04
2018-05-03T00:05:22.424Z,980.06
2018-05-03T00:06:22.612Z,980.04
2018-05-03T00:07:22.792Z,980.06
2018-05-03T00:08:22.994Z,980.05
2018-05-03T00:09:23.195Z,980.08
2018-05-03T00:10:23.399Z,980.03
2018-05-03T00:11:23.588Z,980.08
2018-05-03T00:12:23.771Z,980.08
2018-05-03T00:13:23.967Z,980.07
2018-05-03T00:14:24.160Z,980.06
2018-05-03T00:15:24.345Z,980.09
2018-05-03T00:16:24.530Z,980.07
2018-05-03T00:17:24.711Z,980.07
2018-05-03T00:18:24.952Z,980.08
2018-05-03T00:19:25.116Z,980.06
2018-05-03T00:20:25.305Z,980.10
2018-05-03T00:21:25.488Z,980.05
2018-05-03T00:22:25.683Z,980.04
2018-05-03T00:23:25.891Z,980.05
2018-05-03T00:24:26.093Z,980.11
2018-05-03T00:25:26.278Z,980.09
2018-05-03T00:26:26.477Z,980.09
2018-05-03T00:27:26.660Z,980.10
2018-05-03T00:28:26.841Z,980.11
2018-05-03T00:29:27.053Z,980.11
2018-05-03T00:30:27.251Z,980.12
2018-05-03T00:31:27.431Z,980.12
2018-05-03T00:32:27.618Z,980.14
2018-05-03T00:33:27.795Z,980.14
2018-05-03T00:34:27.991Z,980.12
2018-05-03T00:35:28.169Z,980.15
2018-05-03T00:36:28.358Z,980.17
2018-05-03T00:37:28.557Z,980.16
2018-05-03T00:38:28.753Z,980.17
2018-05-03T00:39:28.942Z,980.15
2018-05-03T00:40:29.130Z,980.15
2018-05-03T00:41:29.320Z,980.18
2018-05-03T00:42:29.515Z,980.18
2018-05-03T00:43:29.698Z,980.17
2018-05-03T00:44:29.885Z,980.20
2018-05-03T00:45:30.075Z,980.16
2018-05-03T00:46:30.267Z,980.17
2018-05-03T00:47:30.444Z,980.13
2018-05-03T00:48:30.631Z,980.24
2018-05-03T00:49:30.838Z,980.20
2018-05-03T00:50:31.101Z,980.21
2018-05-03T00:51:31.171Z,980.22
2018-05-03T00:52:31.393Z,980.18
2018-05-03T00:53:31.589Z,980.21
2018-05-03T00:54:31.770Z,980.20
2018-05-03T00:55:31.961Z,980.23
2018-05-03T00:56:32.157Z,980.21
2018-05-03T00:57:32.360Z,980.22
2018-05-03T00:58:32.563Z,980.25
2018-05-03T00:59:32.767Z,980.30
2018-05-03T01:00:32.952Z,980.30
2018-05-03T01:01:33.142Z,980.34
2018-05-03T01:02:33.332Z,980.37
2018-05-03T01:03:33.522Z,980.36
2018-05-03T01:04:33.720Z,980.39
2018-05-03T01:05:33.902Z,980.40
2018-05-03T01:06:34.105Z,980.42
2018-05-03T01:07:34.296Z,980.44
2018-05-03T01:08:34.498Z,980.45
2018-05-03T01:09:34.677Z,980.49
2018-05-03T01:10:34.874Z,980.50
2018-05-03T01:11:35.136Z,980.50
2018-05-03T01:12:35.199Z,980.51
2018-05-03T01:13:35.380Z,980.51
2018-05-03T01:14:35.587Z,980.56
2018-05-03T01:15:35.773Z,980.53
2018-05-03T01:16:35.981Z,980.56
2018-05-03T01:17:36.162Z,980.54
2018-05-03T01:18:36.357Z,980.59
2018-05-03T01:21:10.198Z,980.56
2018-05-03T01:22:08.741Z,980.52
2018-05-03T01:23:08.938Z,980.52
2018-05-03T01:24:09.124Z,980.51
2018-05-03T01:25:09.325Z,980.52
2018-05-03T01:26:09.518Z,980.50
2018-05-03T01:27:09.716Z,980.49
2018-05-03T01:28:09.996Z,980.44
2018-05-03T01:29:10.093Z,980.45
2018-05-03T01:30:10.296Z,980.48
2018-05-03T01:31:10.485Z,980.49
2018-05-03T01:32:10.665Z,980.49
2018-05-03T01:33:10.853Z,980.51
2018-05-03T01:34:11.034Z,980.51
2018-05-03T01:35:11.221Z,980.53
2018-05-03T01:37:43.332Z,980.54
2018-05-03T01:38:43.516Z,980.53
2018-05-03T01:39:43.716Z,980.52
2018-05-03T01:40:43.899Z,980.47
2018-05-03T01:41:44.081Z,980.47
2018-05-03T01:44:17.114Z,980.50
2018-05-03T01:45:17.279Z,980.53
2018-05-03T01:46:17.488Z,980.50
2018-05-03T01:47:17.670Z,980.57
2018-05-03T01:48:17.887Z,980.54
2018-05-03T01:49:18.074Z,980.54
2018-05-03T01:50:18.255Z,980.51
2018-05-03T01:51:18.472Z,980.55
2018-05-03T01:53:50.555Z,980.55
2018-05-03T01:54:50.720Z,980.56
2018-05-03T01:55:50.911Z,980.54
2018-05-03T01:56:51.092Z,980.52
2018-05-03T01:57:51.297Z,980.50
2018-05-03T01:58:51.484Z,980.54
2018-05-03T01:59:51.666Z,980.52
2018-05-03T02:00:51.863Z,980.52
2018-05-03T02:01:52.066Z,980.54
2018-05-03T02:02:52.272Z,980.52
2018-05-03T02:03:52.462Z,980.51
2018-05-03T02:04:52.649Z,980.52
2018-05-03T02:05:52.848Z,980.49
2018-05-03T02:06:53.095Z,980.50
2018-05-03T02:07:53.276Z,980.47
2018-05-03T02:08:53.481Z,980.48
2018-05-03T02:09:53.748Z,980.49
2018-05-03T02:10:53.854Z,980.49
2018-05-03T02:11:54.061Z,980.51
2018-05-03T02:12:54.238Z,980.51
2018-05-03T02:13:54.422Z,980.51
2018-05-03T02:14:54.608Z,980.55
2018-05-03T02:15:54.810Z,980.55
2018-05-03T02:16:55.006Z,980.57
2018-05-03T02:17:55.195Z,980.54
2018-05-03T02:18:55.371Z,980.57
2018-05-03T02:19:55.575Z,980.58
2018-05-03T02:20:55.761Z,980.53
2018-05-03T02:21:55.960Z,980.50
2018-05-03T02:22:56.158Z,980.52
2018-05-03T02:23:56.335Z,980.52
2018-05-03T02:24:56.534Z,980.54
2018-05-03T02:25:56.737Z,980.53
2018-05-03T02:26:56.922Z,980.49
2018-05-03T02:27:57.114Z,980.49
2018-05-03T02:28:57.310Z,980.49
2018-05-03T02:29:57.510Z,980.51
2018-05-03T02:30:57.712Z,980.50
2018-05-03T02:33:32.053Z,980.52
2018-05-03T02:34:30.595Z,980.52
2018-05-03T02:35:30.785Z,980.50
2018-05-03T02:36:30.977Z,980.54
2018-05-03T02:37:31.201Z,980.54
2018-05-03T02:38:31.373Z,980.59
2018-05-03T02:39:31.652Z,980.61
2018-05-03T02:40:31.743Z,980.62
2018-05-03T02:41:31.927Z,980.64
2018-05-03T02:42:32.121Z,980.63
2018-05-03T02:43:32.330Z,980.63
2018-05-03T02:44:32.505Z,980.63
2018-05-03T02:45:32.684Z,980.60
2018-05-03T02:46:32.894Z,980.60
2018-05-03T02:47:33.106Z,980.59
2018-05-03T02:48:33.296Z,980.61
2018-05-03T02:49:33.480Z,980.60
2018-05-03T02:50:33.692Z,980.61
2018-05-03T02:51:33.891Z,980.62
2018-05-03T02:52:34.084Z,980.66
2018-05-03T02:53:34.284Z,980.69
2018-05-03T02:54:34.476Z,980.69
2018-05-03T02:55:34.656Z,980.68
2018-05-03T02:56:34.842Z,980.70
2018-05-03T02:57:35.045Z,980.71
2018-05-03T02:58:35.255Z,980.70
2018-05-03T02:59:35.432Z,980.74
2018-05-03T03:00:35.684Z,980.75
2018-05-03T03:01:35.878Z,980.76
2018-05-03T03:02:36.088Z,980.74
2018-05-03T03:03:36.272Z,980.75
2018-05-03T03:04:36.468Z,980.81
2018-05-03T03:05:36.669Z,980.79
2018-05-03T03:06:36.885Z,980.79
2018-05-03T03:07:37.080Z,980.79
2018-05-03T03:08:37.289Z,980.81
2018-05-03T03:09:37.499Z,980.80
2018-05-03T03:10:37.696Z,980.73
2018-05-03T03:11:37.884Z,980.74
2018-05-03T03:12:38.086Z,980.70
2018-05-03T03:13:38.272Z,980.71
2018-05-03T03:14:38.451Z,980.65
2018-05-03T03:15:38.665Z,980.63
2018-05-03T03:16:38.864Z,980.62
2018-05-03T03:17:39.062Z,980.60
2018-05-03T03:18:39.246Z,980.52
2018-05-03T03:19:39.434Z,980.55
2018-05-03T03:20:39.639Z,980.52
2018-05-03T03:21:39.843Z,980.54
2018-05-03T03:22:40.037Z,980.53
2018-05-03T03:25:12.880Z,980.56
2018-05-03T03:26:13.051Z,980.55
2018-05-03T03:27:13.254Z,980.58
2018-05-03T03:28:13.436Z,980.56
2018-05-03T03:29:13.630Z,980.58
2018-05-03T03:30:13.815Z,980.56
2018-05-03T03:31:14.008Z,980.58
2018-05-03T03:32:14.201Z,980.57
2018-05-03T03:33:14.404Z,980.58
2018-05-03T03:34:14.612Z,980.58
2018-05-03T03:35:14.793Z,980.56
2018-05-03T03:36:14.972Z,980.62
2018-05-03T03:37:15.165Z,980.61
2018-05-03T03:38:15.359Z,980.62
2018-05-03T03:39:15.550Z,980.64
2018-05-03T03:40:15.731Z,980.67
2018-05-03T03:41:15.926Z,980.65
2018-05-03T03:42:16.115Z,980.68
2018-05-03T03:43:16.299Z,980.72
2018-05-03T03:44:16.499Z,980.69
2018-05-03T03:45:16.698Z,980.73
2018-05-03T03:46:16.904Z,980.70
2018-05-03T03:47:17.103Z,980.71
2018-05-03T03:48:17.312Z,980.71
2018-05-03T03:49:17.505Z,980.71
2018-05-03T03:50:17.702Z,980.69
2018-05-03T03:52:50.683Z,980.72
2018-05-03T03:53:50.854Z,980.76
2018-05-03T03:54:51.033Z,980.73
2018-05-03T03:55:51.223Z,980.68
2018-05-03T03:56:51.432Z,980.67
2018-05-03T03:57:51.707Z,980.66
2018-05-03T03:58:51.775Z,980.70
2018-05-03T03:59:51.962Z,980.69
2018-05-03T04:00:52.154Z,980.71
2018-05-03T04:01:52.335Z,980.65
2018-05-03T04:02:52.527Z,980.68
2018-05-03T04:03:52.716Z,980.67
2018-05-03T04:04:52.898Z,980.68
2018-05-03T04:05:53.089Z,980.68
2018-05-03T04:06:53.273Z,980.71
2018-05-03T04:07:53.461Z,980.73
2018-05-03T04:08:53.658Z,980.75
2018-05-03T04:09:53.863Z,980.77
2018-05-03T04:10:54.063Z,980.78
2018-05-03T04:11:54.271Z,980.78
2018-05-03T04:12:54.478Z,980.77
2018-05-03T04:13:54.690Z,980.80
2018-05-03T04:14:54.883Z,980.80
2018-05-03T04:15:55.090Z,980.84
2018-05-03T04:16:55.269Z,980.85
2018-05-03T04:17:55.453Z,980.85
2018-05-03T04:18:55.710Z,980.91
2018-05-03T04:19:55.783Z,980.88
2018-05-03T04:20:55.984Z,980.94
2018-05-03T04:21:56.168Z,980.98
2018-05-03T04:22:56.360Z,980.98
2018-05-03T04:23:56.573Z,980.95
2018-05-03T04:24:56.772Z,981.01
2018-05-03T04:25:56.979Z,981.03
2018-05-03T04:28:29.621Z,981.08
2018-05-03T04:29:29.791Z,981.04
2018-05-03T04:30:29.999Z,981.06
2018-05-03T04:31:30.183Z,981.04
2018-05-03T04:32:30.383Z,981.02
2018-05-03T04:33:30.596Z,981.05
2018-05-03T04:34:30.864Z,981.10
2018-05-03T04:35:30.954Z,981.11
2018-05-03T04:36:31.135Z,981.17
2018-05-03T04:37:31.323Z,981.17
2018-05-03T04:38:31.524Z,981.23
2018-05-03T04:39:31.716Z,981.23
2018-05-03T04:40:31.908Z,981.25
2018-05-03T04:41:32.102Z,981.28
2018-05-03T04:42:32.306Z,981.32
2018-05-03T04:43:32.488Z,981.33
2018-05-03T04:44:32.674Z,981.36
2018-05-03T04:45:32.875Z,981.33
2018-05-03T04:46:33.082Z,981.42
2018-05-03T04:47:33.280Z,981.38
2018-05-03T04:48:33.485Z,981.44
2018-05-03T04:49:33.699Z,981.40
2018-05-03T04:50:33.878Z,981.41
2018-05-03T04:51:34.089Z,981.47
2018-05-03T04:52:34.295Z,981.49
2018-05-03T04:53:34.498Z,981.55
2018-05-03T04:54:34.675Z,981.57
2018-05-03T04:55:34.859Z,981.62
2018-05-03T04:56:35.038Z,981.65
2018-05-03T04:57:35.229Z,981.66
2018-05-03T04:58:35.444Z,981.65
2018-05-03T04:59:35.655Z,981.70
2018-05-03T05:00:35.858Z,981.71
2018-05-03T05:01:36.046Z,981.66
2018-05-03T05:02:36.229Z,981.65
2018-05-03T05:03:36.412Z,981.73
2018-05-03T05:06:08.497Z,981.78
2018-05-03T05:07:08.672Z,981.81
2018-05-03T05:08:08.854Z,981.84
2018-05-03T05:09:09.055Z,981.87
2018-05-03T05:10:09.264Z,981.85
2018-05-03T05:12:41.363Z,981.89
2018-05-03T05:13:41.597Z,981.88
2018-05-03T05:14:41.792Z,981.90
2018-05-03T05:15:41.974Z,981.90
2018-05-03T05:16:42.183Z,981.91
2018-05-03T05:17:42.383Z,981.93
2018-05-03T05:18:42.578Z,981.92
2018-05-03T05:19:42.771Z,981.93
2018-05-03T05:20:42.972Z,981.89
2018-05-03T05:21:43.153Z,981.93
2018-05-03T05:24:15.312Z,981.93
2018-05-03T05:25:15.403Z,981.92
2018-05-03T05:26:15.598Z,981.98
2018-05-03T05:27:15.783Z,982.02
2018-05-03T05:28:15.979Z,982.08
2018-05-03T05:29:16.176Z,982.03
2018-05-03T05:30:16.359Z,982.05
2018-05-03T05:31:16.561Z,982.03
2018-05-03T05:32:16.773Z,982.06
2018-05-03T05:33:16.976Z,982.06
2018-05-03T05:34:17.182Z,982.13
2018-05-03T05:35:17.383Z,982.17
2018-05-03T05:36:17.595Z,982.20
2018-05-03T05:37:17.785Z,982.21
2018-05-03T05:38:17.972Z,982.23
2018-05-03T05:39:18.176Z,982.25
2018-05-03T05:40:18.395Z,982.30
2018-05-03T05:41:18.592Z,982.29
2018-05-03T05:42:18.780Z,982.27
2018-05-03T05:43:18.961Z,982.28
2018-05-03T05:44:19.255Z,982.30
2018-05-03T05:45:19.322Z,982.31
2018-05-03T05:46:19.521Z,982.33
2018-05-03T05:47:19.721Z,982.33
2018-05-03T05:48:19.932Z,982.33
2018-05-03T05:49:20.147Z,982.32
2018-05-03T05:50:20.350Z,982.35
2018-05-03T05:51:20.590Z,982.39
2018-05-03T05:52:20.747Z,982.41
2018-05-03T05:54:52.861Z,982.47
2018-05-03T05:55:53.034Z,982.48
2018-05-03T05:56:53.236Z,982.46
2018-05-03T05:57:53.437Z,982.49
2018-05-03T05:58:53.643Z,982.48
2018-05-03T05:59:53.853Z,982.46
2018-05-03T06:00:54.035Z,982.46
2018-05-03T06:01:54.245Z,982.51
2018-05-03T06:02:54.454Z,982.53
2018-05-03T06:03:54.639Z,982.56
2018-05-03T06:04:54.823Z,982.61
2018-05-03T06:05:55.022Z,982.62
2018-05-03T06:06:55.209Z,982.64
2018-05-03T06:07:55.407Z,982.62
2018-05-03T06:08:55.605Z,982.68
2018-05-03T06:09:55.848Z,982.65
2018-05-03T06:10:56.002Z,982.75
2018-05-03T06:11:56.255Z,982.71
2018-05-03T06:12:56.397Z,982.71
2018-05-03T06:13:56.581Z,982.73
2018-05-03T06:14:56.763Z,982.77
2018-05-03T06:15:57.025Z,982.81
2018-05-03T06:16:57.093Z,982.84
2018-05-03T06:17:57.292Z,982.87
2018-05-03T06:18:57.547Z,982.91
2018-05-03T06:19:57.742Z,982.93
2018-05-03T06:20:57.925Z,982.95
2018-05-03T06:21:58.135Z,983.01
2018-05-03T06:22:58.326Z,983.03
2018-05-03T06:23:58.517Z,982.99
2018-05-03T06:24:58.722Z,983.03
2018-05-03T06:25:58.918Z,983.03
2018-05-03T06:26:59.119Z,983.06
2018-05-03T06:27:59.287Z,983.10
2018-05-03T06:28:59.487Z,983.22
2018-05-03T06:29:59.713Z,983.12
2018-05-03T06:30:59.921Z,983.12
2018-05-03T06:32:00.117Z,983.14
2018-05-03T06:33:00.309Z,983.16
2018-05-03T06:34:00.518Z,983.20
2018-05-03T06:35:00.723Z,983.40
2018-05-03T06:36:00.932Z,983.27
2018-05-03T06:37:01.136Z,983.29
2018-05-03T06:38:01.326Z,983.34
2018-05-03T06:39:01.507Z,983.38
2018-05-03T06:40:01.712Z,984.21
2018-05-03T06:41:01.918Z,983.76
2018-05-03T06:42:02.127Z,983.83
2018-05-03T06:43:02.358Z,984.30
2018-05-03T06:44:02.555Z,984.24
2018-05-03T06:45:02.754Z,984.36
2018-05-03T06:46:02.956Z,984.36
2018-05-03T06:47:03.148Z,984.32
2018-05-03T06:48:03.344Z,984.39
2018-05-03T06:49:03.535Z,984.33
2018-05-03T06:50:03.725Z,984.39
2018-05-03T06:51:03.922Z,984.43
2018-05-03T06:52:04.119Z,984.49
2018-05-03T06:53:04.348Z,984.49
2018-05-03T06:54:04.553Z,984.53
2018-05-03T06:55:04.744Z,984.51
2018-05-03T06:57:37.003Z,984.57
2018-05-03T06:58:37.241Z,984.60
2018-05-03T06:59:37.399Z,984.62
2018-05-03T07:00:37.615Z,984.47
2018-05-03T07:01:37.826Z,984.06
2018-05-03T07:02:38.014Z,984.55
2018-05-03T07:03:38.213Z,984.69
2018-05-03T07:04:38.401Z,984.19
2018-05-03T07:05:38.587Z,984.81
2018-05-03T07:06:38.784Z,984.70
2018-05-03T07:07:38.985Z,984.08
2018-05-03T07:08:39.177Z,984.50
2018-05-03T07:09:39.372Z,984.24
2018-05-03T07:10:39.572Z,984.44
2018-05-03T07:11:39.779Z,984.21
2018-05-03T07:12:39.992Z,984.18
2018-05-03T07:13:40.195Z,984.51
2018-05-03T07:14:40.398Z,984.20
2018-05-03T07:15:40.601Z,984.03
2018-05-03T07:16:40.822Z,984.22
2018-05-03T07:17:41.031Z,984.38
2018-05-03T07:18:41.222Z,984.32
2018-05-03T07:19:41.424Z,984.51
2018-05-03T07:20:41.639Z,984.71
2018-05-03T07:21:41.841Z,984.57
2018-05-03T07:22:42.048Z,984.37
2018-05-03T07:23:42.283Z,984.50
2018-05-03T07:24:42.464Z,985.00
2018-05-03T07:25:42.668Z,985.01
2018-05-03T07:26:42.856Z,985.08
2018-05-03T07:27:43.070Z,984.65
2018-05-03T07:28:43.440Z,984.97
2018-05-03T07:29:43.497Z,985.05
2018-05-03T07:30:43.711Z,984.84
2018-05-03T07:31:43.927Z,985.25
2018-05-03T07:32:44.119Z,984.60
2018-05-03T07:33:44.317Z,984.55
2018-05-03T07:34:44.529Z,984.47
2018-05-03T07:35:44.732Z,984.53
2018-05-03T07:36:44.932Z,984.39
2018-05-03T07:37:45.138Z,984.35
2018-05-03T07:38:45.359Z,984.30
2018-05-03T07:39:45.577Z,984.28
2018-05-03T07:42:18.950Z,984.09
2018-05-03T07:43:17.634Z,984.09
2018-05-03T07:44:17.880Z,984.04
2018-05-03T07:45:18.085Z,984.05
2018-05-03T07:46:18.285Z,984.02
2018-05-03T07:48:50.401Z,984.00
2018-05-03T07:49:50.581Z,983.99
2018-05-03T07:50:50.783Z,984.01
2018-05-03T07:51:50.992Z,984.01
2018-05-03T07:52:51.192Z,984.06
2018-05-03T07:53:51.392Z,984.02
2018-05-03T07:54:51.603Z,984.02
2018-05-03T07:55:51.813Z,984.02
2018-05-03T07:56:52.028Z,983.98
2018-05-03T07:57:52.233Z,983.99
2018-05-03T07:58:52.444Z,983.95
2018-05-03T07:59:52.634Z,983.98
2018-05-03T08:00:52.828Z,983.98
2018-05-03T08:01:53.020Z,984.01
2018-05-03T08:02:53.220Z,984.05
2018-05-03T08:03:53.413Z,984.10
2018-05-03T08:04:53.613Z,984.10
2018-05-03T08:05:53.805Z,984.11
2018-05-03T08:06:54.002Z,984.10
2018-05-03T08:07:54.198Z,984.11
2018-05-03T08:08:54.402Z,984.13
2018-05-03T08:09:54.599Z,984.09
2018-05-03T08:10:54.799Z,984.10
2018-05-03T08:11:54.990Z,984.11
2018-05-03T08:12:55.189Z,984.11
2018-05-03T08:13:55.406Z,984.13
2018-05-03T08:14:55.595Z,984.16
2018-05-03T08:15:55.793Z,984.19
2018-05-03T08:16:56.059Z,984.16
2018-05-03T08:17:56.182Z,984.17
2018-05-03T08:18:56.365Z,984.17
2018-05-03T08:19:56.569Z,984.20
2018-05-03T08:20:56.762Z,984.18
2018-05-03T08:21:56.956Z,984.23
2018-05-03T08:22:57.148Z,984.24
2018-05-03T08:23:57.360Z,984.25
2018-05-03T08:24:57.577Z,984.33
2018-05-03T08:25:57.775Z,984.33
2018-05-03T08:26:57.978Z,984.30
2018-05-03T08:27:58.163Z,984.34
2018-05-03T08:28:58.381Z,984.35
2018-05-03T08:29:58.575Z,984.32
2018-05-03T08:30:58.773Z,984.39
2018-05-03T08:31:58.975Z,984.50
2018-05-03T08:32:59.184Z,984.39
2018-05-03T08:33:59.390Z,984.37
2018-05-03T08:34:59.598Z,984.33
2018-05-03T08:35:59.787Z,984.65
2018-05-03T08:36:59.975Z,984.38
2018-05-03T08:38:00.166Z,984.39
2018-05-03T08:39:00.359Z,984.40
2018-05-03T08:40:00.561Z,984.39
2018-05-03T08:41:00.757Z,984.42
2018-05-03T08:42:00.947Z,984.52
2018-05-03T08:43:01.133Z,984.53
2018-05-03T08:44:01.372Z,984.59
2018-05-03T08:45:01.573Z,984.62
2018-05-03T08:46:01.771Z,984.68
2018-05-03T08:47:01.959Z,985.34
2018-05-03T08:48:02.147Z,985.00
2018-05-03T08:49:02.365Z,985.41
2018-05-03T08:50:02.559Z,984.95
2018-05-03T08:51:02.782Z,985.12
2018-05-03T08:52:02.987Z,985.08
2018-05-03T08:53:03.190Z,985.54
2018-05-03T08:54:03.376Z,985.46
2018-05-03T08:56:38.233Z,984.99
2018-05-03T08:57:35.670Z,984.98
2018-05-03T08:58:35.890Z,984.93
2018-05-03T09:01:09.747Z,984.87
2018-05-03T09:02:08.179Z,984.91
2018-05-03T09:03:08.448Z,984.91
2018-05-03T09:04:08.536Z,984.93
2018-05-03T09:05:08.771Z,984.95
2018-05-03T09:06:08.982Z,985.16
2018-05-03T09:07:09.232Z,985.24
2018-05-03T09:08:09.455Z,985.04
2018-05-03T09:09:09.641Z,984.95
2018-05-03T09:10:09.848Z,984.92
2018-05-03T09:11:10.125Z,984.92
2018-05-03T09:12:10.294Z,984.93
2018-05-03T09:13:10.470Z,984.99
2018-05-03T09:14:10.673Z,984.92
2018-05-03T09:15:10.962Z,984.90
2018-05-03T09:16:11.037Z,984.87
2018-05-03T09:17:11.248Z,984.89
2018-05-03T09:18:11.436Z,984.86
2018-05-03T09:19:11.627Z,984.94
2018-05-03T09:20:11.839Z,984.89
2018-05-03T09:21:12.057Z,984.86
2018-05-03T09:22:12.245Z,984.90
2018-05-03T09:23:12.435Z,984.90
2018-05-03T09:24:12.638Z,984.95
2018-05-03T09:25:12.857Z,984.97
2018-05-03T09:26:13.081Z,984.96
2018-05-03T09:27:13.241Z,984.90
2018-05-03T09:28:13.474Z,984.92
2018-05-03T09:29:13.693Z,984.89
2018-05-03T09:30:13.912Z,984.88
2018-05-03T09:31:14.114Z,984.83
2018-05-03T09:32:14.320Z,984.80
2018-05-03T09:33:14.512Z,984.84
2018-05-03T09:34:14.700Z,984.86
2018-05-03T09:35:14.914Z,984.91
2018-05-03T09:36:15.127Z,984.92
2018-05-03T09:37:15.313Z,984.93
2018-05-03T09:38:15.538Z,984.94
2018-05-03T09:39:15.824Z,984.86
2018-05-03T09:40:15.967Z,984.93
2018-05-03T09:41:16.155Z,984.92
2018-05-03T09:42:16.352Z,984.94
2018-05-03T09:43:16.565Z,984.95
2018-05-03T09:44:16.772Z,984.97
2018-05-03T09:45:16.979Z,984.99
2018-05-03T09:46:17.171Z,985.02
2018-05-03T09:47:17.381Z,985.05
2018-05-03T09:48:17.759Z,985.05
2018-05-03T09:49:17.832Z,985.12
2018-05-03T09:50:18.043Z,985.16
2018-05-03T09:51:18.223Z,985.10
2018-05-03T09:52:18.438Z,985.10
2018-05-03T09:53:18.644Z,985.14
2018-05-03T09:54:18.857Z,985.22
2018-05-03T09:55:19.047Z,985.04
2018-05-03T09:56:19.254Z,985.14
2018-05-03T09:57:19.472Z,985.13
2018-05-03T09:58:19.661Z,985.10
2018-05-03T09:59:19.944Z,985.06
2018-05-03T10:00:20.083Z,985.07
2018-05-03T10:01:20.281Z,985.02
2018-05-03T10:02:20.494Z,985.09
2018-05-03T10:03:20.704Z,985.07
2018-05-03T10:04:20.906Z,985.03
2018-05-03T10:05:21.119Z,985.01
2018-05-03T10:06:21.320Z,985.05
2018-05-03T10:07:21.534Z,985.02
2018-05-03T10:08:21.724Z,984.99
2018-05-03T10:09:21.931Z,984.99
2018-05-03T10:10:22.127Z,984.99
2018-05-03T10:11:22.331Z,984.97
2018-05-03T10:12:22.542Z,985.05
2018-05-03T10:13:22.766Z,985.00
2018-05-03T10:14:22.938Z,985.03
2018-05-03T10:15:23.159Z,984.98
2018-05-03T10:16:23.378Z,984.98
2018-05-03T10:17:23.564Z,984.97
2018-05-03T10:18:23.799Z,984.92
2018-05-03T10:19:23.989Z,984.92
2018-05-03T10:20:24.197Z,984.88
2018-05-03T10:21:25.224Z,984.93
2018-05-03T10:22:24.592Z,984.92
2018-05-03T10:23:24.776Z,984.92
2018-05-03T10:24:24.965Z,984.91
2018-05-03T10:25:25.160Z,985.01
2018-05-03T10:26:25.344Z,985.02
2018-05-03T10:27:25.548Z,985.04
2018-05-03T10:28:25.769Z,985.08
2018-05-03T10:29:25.990Z,984.99
2018-05-03T10:30:26.159Z,985.01
2018-05-03T10:31:26.350Z,985.02
2018-05-03T10:32:26.551Z,984.99
2018-05-03T10:33:26.747Z,984.99
2018-05-03T10:34:26.948Z,985.01
2018-05-03T10:35:27.164Z,984.96
2018-05-03T10:36:27.354Z,984.94
2018-05-03T10:37:27.549Z,984.92
2018-05-03T10:38:27.734Z,984.89
2018-05-03T10:39:27.948Z,984.88
2018-05-03T10:40:28.149Z,984.90
2018-05-03T10:41:28.340Z,984.90
2018-05-03T10:44:02.200Z,984.94
2018-05-03T10:45:00.621Z,984.94
2018-05-03T10:46:00.820Z,985.02
2018-05-03T10:47:01.013Z,985.01
2018-05-03T10:48:01.208Z,985.01
2018-05-03T10:49:01.506Z,985.11
2018-05-03T10:50:01.631Z,985.00
2018-05-03T10:51:01.813Z,985.07
2018-05-03T10:52:02.007Z,985.08
2018-05-03T10:54:34.384Z,985.08
2018-05-03T10:55:34.562Z,985.05
2018-05-03T10:56:34.755Z,985.03
2018-05-03T10:57:35.029Z,985.01
2018-05-03T10:58:35.149Z,985.03
2018-05-03T10:59:35.332Z,985.08
2018-05-03T11:00:35.543Z,985.21
2018-05-03T11:01:35.754Z,985.06
2018-05-03T11:02:35.976Z,985.14
2018-05-03T11:03:36.163Z,985.06
2018-05-03T11:04:36.365Z,985.05
2018-05-03T11:05:36.664Z,985.06
2018-05-03T11:06:36.781Z,985.04
2018-05-03T11:07:36.971Z,985.01
2018-05-03T11:08:37.185Z,985.03
2018-05-03T11:09:37.386Z,985.05
2018-05-03T11:10:37.740Z,985.01
2018-05-03T11:11:37.823Z,985.01
2018-05-03T11:12:38.013Z,985.00
2018-05-03T11:13:38.208Z,985.08
2018-05-03T11:14:38.424Z,985.04
2018-05-03T11:15:38.635Z,984.99
2018-05-03T11:16:38.919Z,985.00
2018-05-03T11:17:39.062Z,985.10
2018-05-03T11:18:39.271Z,985.10
2018-05-03T11:19:39.477Z,985.15
2018-05-03T11:20:39.660Z,985.09
2018-05-03T11:21:39.883Z,985.12
2018-05-03T11:22:40.090Z,985.14
2018-05-03T11:23:40.309Z,985.07
2018-05-03T11:24:40.519Z,985.08
2018-05-03T11:25:40.724Z,985.09
2018-05-03T11:26:40.935Z,985.14
2018-05-03T11:27:41.131Z,985.19
2018-05-03T11:28:41.330Z,985.12
2018-05-03T11:29:41.544Z,985.10
2018-05-03T11:30:41.761Z,985.12
2018-05-03T11:31:41.965Z,985.08
2018-05-03T11:32:42.179Z,985.09
2018-05-03T11:33:42.396Z,985.07
2018-05-03T11:34:42.552Z,985.11
2018-05-03T11:35:42.748Z,985.17
2018-05-03T11:36:42.998Z,985.15
2018-05-03T11:37:43.183Z,985.12
2018-05-03T11:38:43.374Z,985.15
2018-05-03T11:39:43.584Z,985.08
2018-05-03T11:42:17.454Z,985.10
2018-05-03T11:43:15.868Z,985.06
2018-05-03T11:44:16.088Z,985.04
2018-05-03T11:45:16.277Z,985.14
2018-05-03T11:46:16.475Z,985.16
2018-05-03T11:47:16.691Z,985.16
2018-05-03T11:48:16.907Z,985.12
2018-05-03T11:49:17.120Z,985.13
2018-05-03T11:50:17.322Z,985.03
2018-05-03T11:51:17.529Z,985.06
2018-05-03T11:52:17.756Z,985.04
2018-05-03T11:54:50.157Z,985.03
2018-05-03T11:55:50.087Z,985.01
2018-05-03T11:56:50.278Z,984.96
2018-05-03T11:57:50.487Z,985.03
2018-05-03T11:58:50.685Z,985.03
2018-05-03T11:59:50.902Z,985.06
2018-05-03T12:00:51.117Z,985.08
2018-05-03T12:01:51.330Z,985.04
2018-05-03T12:02:51.541Z,985.02
2018-05-03T12:03:51.757Z,985.00
2018-05-03T12:04:51.955Z,985.12
2018-05-03T12:05:52.200Z,985.12
2018-05-03T12:06:52.385Z,985.07
2018-05-03T12:07:52.595Z,985.10
2018-05-03T12:08:52.789Z,985.10
2018-05-03T12:09:52.993Z,985.07
2018-05-03T12:10:53.203Z,985.04
2018-05-03T12:11:53.413Z,985.05
2018-05-03T12:12:53.634Z,985.06
2018-05-03T12:13:53.851Z,985.03
2018-05-03T12:14:54.045Z,985.07
2018-05-03T12:15:54.259Z,985.05
2018-05-03T12:16:54.471Z,985.04
2018-05-03T12:17:54.664Z,985.06
2018-05-03T12:18:54.898Z,985.04
2018-05-03T12:19:55.101Z,984.97
2018-05-03T12:20:55.307Z,984.97
2018-05-03T12:21:55.530Z,984.92
2018-05-03T12:22:55.724Z,984.94
2018-05-03T12:23:55.929Z,984.92
2018-05-03T12:24:56.141Z,984.92
2018-05-03T12:25:56.347Z,984.95
2018-05-03T12:26:56.557Z,984.94
2018-05-03T12:27:56.773Z,985.02
2018-05-03T12:28:56.989Z,985.03
2018-05-03T12:29:57.233Z,985.09
2018-05-03T12:30:57.437Z,985.12
2018-05-03T12:31:57.658Z,985.09
2018-05-03T12:32:57.883Z,985.10
2018-05-03T12:33:58.085Z,985.09
2018-05-03T12:34:58.309Z,985.11
2018-05-03T12:35:58.489Z,985.09
2018-05-03T12:36:58.694Z,985.06
2018-05-03T12:37:58.913Z,985.05
2018-05-03T12:38:59.103Z,985.05
2018-05-03T12:39:59.295Z,985.02
2018-05-03T12:40:59.616Z,985.01
2018-05-03T12:41:59.666Z,985.01
2018-05-03T12:42:59.864Z,985.03
2018-05-03T12:44:00.067Z,985.02
2018-05-03T12:45:00.259Z,985.07
2018-05-03T12:46:00.456Z,985.09
2018-05-03T12:47:00.684Z,984.97
2018-05-03T12:48:00.883Z,985.01
2018-05-03T12:49:01.088Z,984.96
2018-05-03T12:50:01.274Z,984.92
2018-05-03T12:51:01.488Z,984.91
2018-05-03T12:52:01.783Z,984.98
2018-05-03T12:53:01.856Z,985.06
2018-05-03T12:54:02.045Z,985.01
2018-05-03T12:55:02.243Z,984.93
2018-05-03T12:56:02.445Z,985.01
2018-05-03T12:57:02.654Z,985.02
2018-05-03T12:58:02.854Z,985.07
2018-05-03T12:59:03.102Z,985.02
2018-05-03T13:00:03.306Z,985.00
2018-05-03T13:01:03.513Z,985.03
2018-05-03T13:02:03.699Z,985.00
2018-05-03T13:03:03.936Z,984.95